sensor_id;sensor_type;location;lat;lon;timestamp;pressure;altitude;pressure_sealevel;temperature;humidity
34658;BME280;20865;43.312;27.152;2023-01-31T00:01:38;99957.98;;;6.96;41.58
34658;BME280;20865;43.312;27.152;2023-01-31T00:04:09;99962.48;;;6.92;41.45
34658;BME280;20865;43.312;27.152;2023-01-31T00:06:41;99959.48;;;6.88;41.37
34658;BME280;20865;43.312;27.152;2023-01-31T00:09:10;99965.26;;;6.86;40.87
34658;BME280;20865;43.312;27.152;2023-01-31T00:11:37;99955.26;;;6.78;40.76
34658;BME280;20865;43.312;27.152;2023-01-31T00:14:06;99949.95;;;6.76;40.75
34658;BME280;20865;43.312;27.152;2023-01-31T00:16:36;99943.01;;;6.71;41.02
34658;BME280;20865;43.312;27.152;2023-01-31T00:19:04;99950.45;;;6.74;40.86
34658;BME280;20865;43.312;27.152;2023-01-31T00:21:32;99944.59;;;6.79;40.70
34658;BME280;20865;43.312;27.152;2023-01-31T00:24:00;99953.41;;;6.81;40.52
34658;BME280;20865;43.312;27.152;2023-01-31T00:26:32;99947.69;;;6.80;40.46
34658;BME280;20865;43.312;27.152;2023-01-31T00:29:02;99951.28;;;6.76;40.35
34658;BME280;20865;43.312;27.152;2023-01-31T00:31:32;99945.77;;;6.66;40.44
34658;BME280;20865;43.312;27.152;2023-01-31T00:34:00;99948.20;;;6.77;40.34
34658;BME280;20865;43.312;27.152;2023-01-31T00:36:30;99942.95;;;6.74;40.84
34658;BME280;20865;43.312;27.152;2023-01-31T00:39:00;99943.06;;;6.67;40.85
34658;BME280;20865;43.312;27.152;2023-01-31T00:41:29;99940.52;;;6.63;41.07
34658;BME280;20865;43.312;27.152;2023-01-31T00:43:58;99942.71;;;6.63;41.29
34658;BME280;20865;43.312;27.152;2023-01-31T00:46:26;99942.31;;;6.61;41.10
34658;BME280;20865;43.312;27.152;2023-01-31T00:48:55;99930.52;;;6.53;40.95
34658;BME280;20865;43.312;27.152;2023-01-31T00:51:24;99933.48;;;6.59;40.94
34658;BME280;20865;43.312;27.152;2023-01-31T00:53:52;99928.64;;;6.58;40.82
34658;BME280;20865;43.312;27.152;2023-01-31T00:56:22;99924.20;;;6.59;40.95
34658;BME280;20865;43.312;27.152;2023-01-31T00:58:51;99929.50;;;6.59;41.04
34658;BME280;20865;43.312;27.152;2023-01-31T01:01:22;99921.55;;;6.59;41.09
34658;BME280;20865;43.312;27.152;2023-01-31T01:03:50;99911.89;;;6.56;41.12
34658;BME280;20865;43.312;27.152;2023-01-31T01:06:18;99913.22;;;6.55;41.30
34658;BME280;20865;43.312;27.152;2023-01-31T01:08:46;99911.38;;;6.58;41.13
34658;BME280;20865;43.312;27.152;2023-01-31T01:11:17;99912.66;;;6.61;41.22
34658;BME280;20865;43.312;27.152;2023-01-31T01:13:45;99904.73;;;6.60;40.97
34658;BME280;20865;43.312;27.152;2023-01-31T01:16:15;99906.48;;;6.61;41.07
34658;BME280;20865;43.312;27.152;2023-01-31T01:18:43;99907.45;;;6.57;41.35
34658;BME280;20865;43.312;27.152;2023-01-31T01:21:15;99902.15;;;6.55;41.24
34658;BME280;20865;43.312;27.152;2023-01-31T01:23:44;99904.80;;;6.55;40.92
34658;BME280;20865;43.312;27.152;2023-01-31T01:26:17;99914.41;;;6.40;41.05
34658;BME280;20865;43.312;27.152;2023-01-31T01:28:45;99916.14;;;6.41;41.00
34658;BME280;20865;43.312;27.152;2023-01-31T01:31:14;99909.81;;;6.48;41.22
34658;BME280;20865;43.312;27.152;2023-01-31T01:33:45;99904.95;;;6.49;41.38
34658;BME280;20865;43.312;27.152;2023-01-31T01:36:15;99914.19;;;6.52;41.49
34658;BME280;20865;43.312;27.152;2023-01-31T01:38:45;99921.12;;;6.58;41.54
34658;BME280;20865;43.312;27.152;2023-01-31T01:41:14;99913.56;;;6.60;41.66
34658;BME280;20865;43.312;27.152;2023-01-31T01:43:44;99913.58;;;6.59;41.98
34658;BME280;20865;43.312;27.152;2023-01-31T01:46:27;99907.70;;;6.65;41.96
34658;BME280;20865;43.312;27.152;2023-01-31T01:49:16;99911.68;;;6.65;42.10
34658;BME280;20865;43.312;27.152;2023-01-31T01:51:30;99919.63;;;6.67;42.04
34658;BME280;20865;43.312;27.152;2023-01-31T01:54:03;99917.41;;;6.89;41.64
34658;BME280;20865;43.312;27.152;2023-01-31T01:56:32;99910.81;;;6.87;41.43
34658;BME280;20865;43.312;27.152;2023-01-31T01:59:07;99905.86;;;6.69;41.98
34658;BME280;20865;43.312;27.152;2023-01-31T02:01:34;99894.36;;;6.68;41.53
34658;BME280;20865;43.312;27.152;2023-01-31T02:04:04;99897.38;;;6.73;41.64
34658;BME280;20865;43.312;27.152;2023-01-31T02:06:33;99895.11;;;6.75;41.90
34658;BME280;20865;43.312;27.152;2023-01-31T02:09:01;99892.05;;;6.74;41.94
34658;BME280;20865;43.312;27.152;2023-01-31T02:11:31;99897.71;;;6.78;42.04
34658;BME280;20865;43.312;27.152;2023-01-31T02:14:07;99890.03;;;6.85;42.06
34658;BME280;20865;43.312;27.152;2023-01-31T02:16:35;99893.10;;;6.86;41.79
34658;BME280;20865;43.312;27.152;2023-01-31T02:19:07;99884.84;;;6.81;41.83
34658;BME280;20865;43.312;27.152;2023-01-31T02:37:53;99893.89;;;6.71;42.19
34658;BME280;20865;43.312;27.152;2023-01-31T02:46:06;99880.45;;;6.78;42.56
34658;BME280;20865;43.312;27.152;2023-01-31T02:51:20;99877.34;;;6.79;42.90
34658;BME280;20865;43.312;27.152;2023-01-31T02:53:58;99880.80;;;6.84;43.08
34658;BME280;20865;43.312;27.152;2023-01-31T02:56:29;99887.27;;;6.90;42.70
34658;BME280;20865;43.312;27.152;2023-01-31T02:59:06;99881.38;;;6.97;42.81
34658;BME280;20865;43.312;27.152;2023-01-31T03:01:35;99883.02;;;7.22;42.08
34658;BME280;20865;43.312;27.152;2023-01-31T03:04:09;99878.09;;;7.26;42.18
34658;BME280;20865;43.312;27.152;2023-01-31T03:09:26;99889.39;;;7.14;42.58
34658;BME280;20865;43.312;27.152;2023-01-31T03:20:17;99894.52;;;7.04;42.89
34658;BME280;20865;43.312;27.152;2023-01-31T03:22:53;99890.94;;;7.05;42.92
34658;BME280;20865;43.312;27.152;2023-01-31T03:25:23;99892.73;;;7.05;43.10
34658;BME280;20865;43.312;27.152;2023-01-31T03:27:58;99889.04;;;7.10;43.16
34658;BME280;20865;43.312;27.152;2023-01-31T03:31:22;99895.32;;;7.08;43.16
34658;BME280;20865;43.312;27.152;2023-01-31T03:33:20;99892.50;;;7.14;43.17
34658;BME280;20865;43.312;27.152;2023-01-31T03:35:51;99893.81;;;7.15;43.13
34658;BME280;20865;43.312;27.152;2023-01-31T03:38:20;99882.22;;;7.18;43.25
34658;BME280;20865;43.312;27.152;2023-01-31T03:40:57;99894.17;;;7.18;43.40
34658;BME280;20865;43.312;27.152;2023-01-31T03:43:35;99889.23;;;7.22;43.51
34658;BME280;20865;43.312;27.152;2023-01-31T03:46:17;99878.55;;;7.25;43.60
34658;BME280;20865;43.312;27.152;2023-01-31T03:48:47;99887.80;;;7.27;43.64
34658;BME280;20865;43.312;27.152;2023-01-31T03:51:18;99884.66;;;7.29;43.78
34658;BME280;20865;43.312;27.152;2023-01-31T03:53:49;99884.22;;;7.28;44.08
34658;BME280;20865;43.312;27.152;2023-01-31T03:56:24;99882.28;;;7.36;44.04
34658;BME280;20865;43.312;27.152;2023-01-31T03:58:55;99879.18;;;7.35;44.25
34658;BME280;20865;43.312;27.152;2023-01-31T04:01:23;99881.36;;;7.37;44.48
34658;BME280;20865;43.312;27.152;2023-01-31T04:03:54;99880.38;;;7.41;44.43
34658;BME280;20865;43.312;27.152;2023-01-31T04:06:22;99887.81;;;7.45;44.54
34658;BME280;20865;43.312;27.152;2023-01-31T04:08:50;99889.53;;;7.47;44.63
34658;BME280;20865;43.312;27.152;2023-01-31T04:11:20;99893.38;;;7.53;44.64
34658;BME280;20865;43.312;27.152;2023-01-31T04:13:48;99885.77;;;7.56;44.82
34658;BME280;20865;43.312;27.152;2023-01-31T04:16:16;99876.32;;;7.62;44.93
34658;BME280;20865;43.312;27.152;2023-01-31T04:18:44;99884.30;;;7.62;45.07
34658;BME280;20865;43.312;27.152;2023-01-31T04:21:13;99885.95;;;7.68;44.35
34658;BME280;20865;43.312;27.152;2023-01-31T04:23:41;99891.19;;;7.71;44.21
34658;BME280;20865;43.312;27.152;2023-01-31T04:26:08;99890.27;;;7.72;44.19
34658;BME280;20865;43.312;27.152;2023-01-31T04:28:36;99901.70;;;7.75;44.27
34658;BME280;20865;43.312;27.152;2023-01-31T04:31:04;99906.97;;;7.77;44.29
34658;BME280;20865;43.312;27.152;2023-01-31T04:33:32;99902.09;;;7.78;44.38
34658;BME280;20865;43.312;27.152;2023-01-31T04:35:59;99905.97;;;7.81;44.89
34658;BME280;20865;43.312;27.152;2023-01-31T04:38:27;99899.77;;;7.82;45.24
34658;BME280;20865;43.312;27.152;2023-01-31T04:40:54;99911.07;;;7.90;45.33
34658;BME280;20865;43.312;27.152;2023-01-31T04:43:22;99907.41;;;7.94;45.53
34658;BME280;20865;43.312;27.152;2023-01-31T04:45:50;99909.92;;;8.00;45.47
34658;BME280;20865;43.312;27.152;2023-01-31T04:48:17;99904.55;;;8.02;45.62
34658;BME280;20865;43.312;27.152;2023-01-31T04:50:45;99917.35;;;8.05;45.64
34658;BME280;20865;43.312;27.152;2023-01-31T04:53:13;99918.58;;;8.08;45.71
34658;BME280;20865;43.312;27.152;2023-01-31T04:55:41;99916.22;;;8.14;45.68
34658;BME280;20865;43.312;27.152;2023-01-31T04:58:08;99919.27;;;8.17;45.66
34658;BME280;20865;43.312;27.152;2023-01-31T05:00:36;99923.98;;;8.23;45.63
34658;BME280;20865;43.312;27.152;2023-01-31T05:03:04;99920.86;;;8.24;45.58
34658;BME280;20865;43.312;27.152;2023-01-31T05:05:32;99925.56;;;8.30;45.50
34658;BME280;20865;43.312;27.152;2023-01-31T05:08:00;99917.92;;;8.33;45.58
34658;BME280;20865;43.312;27.152;2023-01-31T05:10:27;99920.16;;;8.33;45.47
34658;BME280;20865;43.312;27.152;2023-01-31T05:12:55;99918.73;;;8.38;45.55
34658;BME280;20865;43.312;27.152;2023-01-31T05:15:22;99915.47;;;8.43;45.45
34658;BME280;20865;43.312;27.152;2023-01-31T05:17:52;99922.89;;;8.48;45.38
34658;BME280;20865;43.312;27.152;2023-01-31T05:20:19;99921.04;;;8.50;45.43
34658;BME280;20865;43.312;27.152;2023-01-31T05:22:47;99930.72;;;8.54;45.37
34658;BME280;20865;43.312;27.152;2023-01-31T05:25:17;99919.95;;;8.57;45.41
34658;BME280;20865;43.312;27.152;2023-01-31T05:27:44;99918.54;;;8.61;45.38
34658;BME280;20865;43.312;27.152;2023-01-31T05:30:12;99923.78;;;8.64;45.39
34658;BME280;20865;43.312;27.152;2023-01-31T05:32:40;99930.91;;;8.63;45.38
34658;BME280;20865;43.312;27.152;2023-01-31T05:35:07;99927.78;;;8.64;45.44
34658;BME280;20865;43.312;27.152;2023-01-31T05:37:35;99923.38;;;8.63;45.58
34658;BME280;20865;43.312;27.152;2023-01-31T05:40:03;99931.75;;;8.65;45.60
34658;BME280;20865;43.312;27.152;2023-01-31T05:42:30;99930.41;;;8.65;45.61
34658;BME280;20865;43.312;27.152;2023-01-31T05:44:58;99935.22;;;8.67;45.71
34658;BME280;20865;43.312;27.152;2023-01-31T05:47:26;99926.28;;;8.70;45.74
34658;BME280;20865;43.312;27.152;2023-01-31T05:49:54;99933.41;;;8.69;45.81
34658;BME280;20865;43.312;27.152;2023-01-31T05:52:23;99945.33;;;8.71;45.97
34658;BME280;20865;43.312;27.152;2023-01-31T05:54:51;99949.65;;;8.75;45.99
34658;BME280;20865;43.312;27.152;2023-01-31T05:57:20;99953.62;;;8.76;46.15
34658;BME280;20865;43.312;27.152;2023-01-31T05:59:48;99964.67;;;8.77;46.31
34658;BME280;20865;43.312;27.152;2023-01-31T06:02:15;99968.21;;;8.78;46.44
34658;BME280;20865;43.312;27.152;2023-01-31T06:04:43;99970.30;;;8.83;46.48
34658;BME280;20865;43.312;27.152;2023-01-31T06:07:10;99971.58;;;8.85;46.49
34658;BME280;20865;43.312;27.152;2023-01-31T06:09:38;99973.75;;;8.87;46.44
34658;BME280;20865;43.312;27.152;2023-01-31T06:12:11;99976.83;;;8.88;46.54
34658;BME280;20865;43.312;27.152;2023-01-31T06:14:37;99978.94;;;8.91;46.66
34658;BME280;20865;43.312;27.152;2023-01-31T06:17:05;99978.45;;;8.93;46.62
34658;BME280;20865;43.312;27.152;2023-01-31T06:19:32;99983.70;;;8.96;46.70
34658;BME280;20865;43.312;27.152;2023-01-31T06:22:00;99987.15;;;9.00;46.59
34658;BME280;20865;43.312;27.152;2023-01-31T06:24:28;99987.96;;;9.02;46.64
34658;BME280;20865;43.312;27.152;2023-01-31T06:26:55;99981.27;;;9.03;46.75
34658;BME280;20865;43.312;27.152;2023-01-31T06:29:23;99975.39;;;9.07;46.71
34658;BME280;20865;43.312;27.152;2023-01-31T06:31:51;99985.91;;;9.12;46.58
34658;BME280;20865;43.312;27.152;2023-01-31T06:34:20;99984.09;;;9.14;46.63
34658;BME280;20865;43.312;27.152;2023-01-31T06:36:48;99987.65;;;9.13;46.66
34658;BME280;20865;43.312;27.152;2023-01-31T06:39:15;99993.73;;;9.18;46.48
34658;BME280;20865;43.312;27.152;2023-01-31T06:41:43;99994.87;;;9.24;46.30
34658;BME280;20865;43.312;27.152;2023-01-31T06:44:11;100005.12;;;9.23;46.28
34658;BME280;20865;43.312;27.152;2023-01-31T06:46:38;100001.19;;;9.21;46.26
34658;BME280;20865;43.312;27.152;2023-01-31T06:49:06;100002.98;;;9.21;46.33
34658;BME280;20865;43.312;27.152;2023-01-31T06:51:34;100004.31;;;9.21;46.33
34658;BME280;20865;43.312;27.152;2023-01-31T06:54:01;100004.31;;;9.21;46.35
34658;BME280;20865;43.312;27.152;2023-01-31T06:56:29;99999.41;;;9.20;46.30
34658;BME280;20865;43.312;27.152;2023-01-31T06:58:57;100001.53;;;9.24;46.22
34658;BME280;20865;43.312;27.152;2023-01-31T07:01:25;100010.92;;;9.22;46.27
34658;BME280;20865;43.312;27.152;2023-01-31T07:03:53;100011.30;;;9.25;46.21
34658;BME280;20865;43.312;27.152;2023-01-31T07:06:20;100008.95;;;9.29;46.05
34658;BME280;20865;43.312;27.152;2023-01-31T07:08:48;100008.02;;;9.30;46.08
34658;BME280;20865;43.312;27.152;2023-01-31T07:11:15;100012.40;;;9.33;46.08
34658;BME280;20865;43.312;27.152;2023-01-31T07:13:43;100011.47;;;9.34;46.10
34658;BME280;20865;43.312;27.152;2023-01-31T07:16:13;100016.25;;;9.37;46.03
34658;BME280;20865;43.312;27.152;2023-01-31T07:18:42;100014.89;;;9.39;46.07
34658;BME280;20865;43.312;27.152;2023-01-31T07:21:10;100009.64;;;9.36;46.15
34658;BME280;20865;43.312;27.152;2023-01-31T07:23:37;100008.16;;;9.40;46.08
34658;BME280;20865;43.312;27.152;2023-01-31T07:26:05;100018.69;;;9.45;46.06
34658;BME280;20865;43.312;27.152;2023-01-31T07:28:33;100017.27;;;9.48;46.03
34658;BME280;20865;43.312;27.152;2023-01-31T07:31:05;100024.22;;;9.53;45.92
34658;BME280;20865;43.312;27.152;2023-01-31T07:33:33;100032.22;;;9.53;45.91
34658;BME280;20865;43.312;27.152;2023-01-31T07:36:02;100029.92;;;9.56;45.83
34658;BME280;20865;43.312;27.152;2023-01-31T07:38:30;100035.95;;;9.63;45.71
34658;BME280;20865;43.312;27.152;2023-01-31T07:40:59;100040.73;;;9.66;45.65
34658;BME280;20865;43.312;27.152;2023-01-31T07:43:29;100050.94;;;9.67;45.67
34658;BME280;20865;43.312;27.152;2023-01-31T07:45:57;100046.07;;;9.66;45.67
34658;BME280;20865;43.312;27.152;2023-01-31T07:48:25;100044.73;;;9.66;45.73
34658;BME280;20865;43.312;27.152;2023-01-31T07:51:00;100053.98;;;9.69;45.67
34658;BME280;20865;43.312;27.152;2023-01-31T07:53:30;100056.59;;;9.71;45.63
34658;BME280;20865;43.312;27.152;2023-01-31T07:56:17;100050.64;;;9.76;45.57
34658;BME280;20865;43.312;27.152;2023-01-31T07:58:42;100051.02;;;9.78;45.45
34658;BME280;20865;43.312;27.152;2023-01-31T08:01:21;100041.77;;;9.75;45.41
34658;BME280;20865;43.312;27.152;2023-01-31T08:04:09;100039.09;;;9.75;45.37
34658;BME280;20865;43.312;27.152;2023-01-31T08:06:39;100049.22;;;9.79;45.36
34658;BME280;20865;43.312;27.152;2023-01-31T08:09:07;100052.34;;;9.78;45.47
34658;BME280;20865;43.312;27.152;2023-01-31T08:11:35;100051.02;;;9.78;45.50
34658;BME280;20865;43.312;27.152;2023-01-31T08:14:02;100045.77;;;9.75;45.62
34658;BME280;20865;43.312;27.152;2023-01-31T08:16:30;100055.85;;;9.81;45.66
34658;BME280;20865;43.312;27.152;2023-01-31T08:18:58;100065.53;;;9.83;45.59
34658;BME280;20865;43.312;27.152;2023-01-31T08:21:26;100061.91;;;9.86;45.42
34658;BME280;20865;43.312;27.152;2023-01-31T08:23:53;100069.51;;;9.85;45.51
34658;BME280;20865;43.312;27.152;2023-01-31T08:26:21;100069.51;;;9.85;45.63
34658;BME280;20865;43.312;27.152;2023-01-31T08:28:50;100071.25;;;9.86;45.58
34658;BME280;20865;43.312;27.152;2023-01-31T08:31:22;100067.22;;;9.87;45.50
34658;BME280;20865;43.312;27.152;2023-01-31T08:33:50;100067.22;;;9.87;45.36
34658;BME280;20865;43.312;27.152;2023-01-31T08:36:20;100067.55;;;9.90;45.39
34658;BME280;20865;43.312;27.152;2023-01-31T08:38:49;100074.20;;;9.91;45.42
34658;BME280;20865;43.312;27.152;2023-01-31T08:41:19;100077.98;;;9.84;45.46
34658;BME280;20865;43.312;27.152;2023-01-31T08:43:47;100076.18;;;9.85;45.46
34658;BME280;20865;43.312;27.152;2023-01-31T08:46:15;100084.13;;;9.86;45.63
34658;BME280;20865;43.312;27.152;2023-01-31T08:48:42;100083.53;;;9.91;45.37
34658;BME280;20865;43.312;27.152;2023-01-31T08:51:11;100080.72;;;9.96;45.30
34658;BME280;20865;43.312;27.152;2023-01-31T08:53:40;100085.50;;;9.99;45.25
34658;BME280;20865;43.312;27.152;2023-01-31T08:56:11;100080.13;;;10.01;44.97
34658;BME280;20865;43.312;27.152;2023-01-31T08:58:41;100077.00;;;10.01;45.11
34658;BME280;20865;43.312;27.152;2023-01-31T09:01:14;100074.83;;;9.99;45.09
34658;BME280;20865;43.312;27.152;2023-01-31T09:03:43;100076.06;;;10.02;45.08
34658;BME280;20865;43.312;27.152;2023-01-31T09:06:16;100083.05;;;10.07;45.08
34658;BME280;20865;43.312;27.152;2023-01-31T09:08:44;100083.48;;;10.08;44.98
34658;BME280;20865;43.312;27.152;2023-01-31T09:11:13;100081.63;;;10.10;44.90
34658;BME280;20865;43.312;27.152;2023-01-31T09:13:45;100083.36;;;9.97;45.06
34658;BME280;20865;43.312;27.152;2023-01-31T09:16:17;100086.65;;;10.06;44.98
34658;BME280;20865;43.312;27.152;2023-01-31T09:18:45;100094.38;;;10.15;44.73
34658;BME280;20865;43.312;27.152;2023-01-31T09:21:15;100088.98;;;10.16;44.61
34658;BME280;20865;43.312;27.152;2023-01-31T09:23:42;100089.81;;;10.18;44.64
34658;BME280;20865;43.312;27.152;2023-01-31T09:26:11;100089.13;;;10.25;44.57
34658;BME280;20865;43.312;27.152;2023-01-31T09:28:39;100092.73;;;10.25;44.46
34658;BME280;20865;43.312;27.152;2023-01-31T09:31:13;100082.15;;;10.21;44.48
34658;BME280;20865;43.312;27.152;2023-01-31T09:33:41;100087.45;;;10.22;44.60
34658;BME280;20865;43.312;27.152;2023-01-31T09:36:11;100081.50;;;10.29;44.52
34658;BME280;20865;43.312;27.152;2023-01-31T09:38:39;100078.94;;;10.39;44.46
34658;BME280;20865;43.312;27.152;2023-01-31T09:41:25;100085.34;;;10.34;44.03
34658;BME280;20865;43.312;27.152;2023-01-31T09:43:59;100089.25;;;10.37;44.17
34658;BME280;20865;43.312;27.152;2023-01-31T09:46:29;100089.62;;;10.39;44.25
34658;BME280;20865;43.312;27.152;2023-01-31T09:48:59;100077.75;;;10.48;44.33
34658;BME280;20865;43.312;27.152;2023-01-31T09:51:28;100077.58;;;10.53;44.39
34658;BME280;20865;43.312;27.152;2023-01-31T09:53:55;100085.09;;;10.55;44.25
34658;BME280;20865;43.312;27.152;2023-01-31T09:56:35;100079.12;;;10.60;44.09
34658;BME280;20865;43.312;27.152;2023-01-31T09:59:20;100084.47;;;10.60;43.90
34658;BME280;20865;43.312;27.152;2023-01-31T10:02:29;100086.44;;;10.68;43.89
34658;BME280;20865;43.312;27.152;2023-01-31T10:07:37;100075.78;;;10.66;43.60
34658;BME280;20865;43.312;27.152;2023-01-31T10:12:59;100080.39;;;10.49;43.65
34658;BME280;20865;43.312;27.152;2023-01-31T10:15:42;100076.98;;;10.44;43.72
34658;BME280;20865;43.312;27.152;2023-01-31T10:23:27;100074.98;;;10.51;43.51
34658;BME280;20865;43.312;27.152;2023-01-31T10:26:00;100079.92;;;10.50;43.57
34658;BME280;20865;43.312;27.152;2023-01-31T10:28:30;100076.70;;;10.39;43.64
34658;BME280;20865;43.312;27.152;2023-01-31T10:31:29;100077.02;;;10.56;43.49
34658;BME280;20865;43.312;27.152;2023-01-31T10:36:42;100068.61;;;10.55;43.87
34658;BME280;20865;43.312;27.152;2023-01-31T10:39:24;100073.69;;;10.63;43.99
34658;BME280;20865;43.312;27.152;2023-01-31T10:42:04;100066.91;;;10.66;44.21
34658;BME280;20865;43.312;27.152;2023-01-31T10:44:51;100068.88;;;10.74;44.13
34658;BME280;20865;43.312;27.152;2023-01-31T10:47:23;100076.05;;;10.85;44.23
34658;BME280;20865;43.312;27.152;2023-01-31T10:49:50;100069.37;;;10.85;43.64
34658;BME280;20865;43.312;27.152;2023-01-31T10:55:38;100059.44;;;10.89;43.13
34658;BME280;20865;43.312;27.152;2023-01-31T10:58:02;100055.70;;;10.81;43.41
34658;BME280;20865;43.312;27.152;2023-01-31T11:00:32;100059.05;;;10.88;43.38
34658;BME280;20865;43.312;27.152;2023-01-31T11:03:00;100056.41;;;10.86;43.45
34658;BME280;20865;43.312;27.152;2023-01-31T11:05:29;100061.00;;;10.94;43.30
34658;BME280;20865;43.312;27.152;2023-01-31T11:08:00;100058.70;;;10.97;43.25
34658;BME280;20865;43.312;27.152;2023-01-31T11:10:31;100052.38;;;11.00;43.06
34658;BME280;20865;43.312;27.152;2023-01-31T11:13:01;100050.21;;;10.97;43.15
34658;BME280;20865;43.312;27.152;2023-01-31T11:15:38;100047.24;;;10.93;43.12
34658;BME280;20865;43.312;27.152;2023-01-31T11:18:13;100044.67;;;10.90;43.10
34658;BME280;20865;43.312;27.152;2023-01-31T11:20:45;100041.50;;;10.92;43.27
34658;BME280;20865;43.312;27.152;2023-01-31T11:23:20;100042.92;;;11.03;43.12
34658;BME280;20865;43.312;27.152;2023-01-31T11:25:48;100047.61;;;10.96;43.13
34658;BME280;20865;43.312;27.152;2023-01-31T11:28:34;100051.66;;;10.94;43.16
34658;BME280;20865;43.312;27.152;2023-01-31T11:31:05;100048.56;;;10.68;43.41
34658;BME280;20865;43.312;27.152;2023-01-31T11:33:42;100043.70;;;10.55;43.25
34658;BME280;20865;43.312;27.152;2023-01-31T11:36:11;100052.38;;;10.48;43.77
34658;BME280;20865;43.312;27.152;2023-01-31T11:38:40;100047.06;;;10.73;43.13
34658;BME280;20865;43.312;27.152;2023-01-31T11:41:30;100053.67;;;10.36;43.79
34658;BME280;20865;43.312;27.152;2023-01-31T11:46:42;100048.88;;;9.90;43.92
34658;BME280;20865;43.312;27.152;2023-01-31T11:49:26;100049.86;;;10.30;44.10
34658;BME280;20865;43.312;27.152;2023-01-31T11:51:43;100049.50;;;10.41;43.97
34658;BME280;20865;43.312;27.152;2023-01-31T11:54:14;100048.64;;;10.54;44.04
34658;BME280;20865;43.312;27.152;2023-01-31T11:56:41;100041.78;;;10.32;43.82
34658;BME280;20865;43.312;27.152;2023-01-31T11:59:12;100045.50;;;10.54;43.63
34658;BME280;20865;43.312;27.152;2023-01-31T12:01:46;100048.38;;;10.61;43.44
34658;BME280;20865;43.312;27.152;2023-01-31T12:04:30;100047.10;;;10.46;43.40
34658;BME280;20865;43.312;27.152;2023-01-31T12:06:57;100054.17;;;10.47;43.75
34658;BME280;20865;43.312;27.152;2023-01-31T12:09:30;100042.01;;;10.25;43.96
34658;BME280;20865;43.312;27.152;2023-01-31T12:12:00;100047.23;;;10.55;43.77
34658;BME280;20865;43.312;27.152;2023-01-31T12:14:41;100053.25;;;10.48;43.57
34658;BME280;20865;43.312;27.152;2023-01-31T12:17:13;100050.01;;;10.52;43.70
34658;BME280;20865;43.312;27.152;2023-01-31T12:19:50;100046.10;;;10.62;43.76
34658;BME280;20865;43.312;27.152;2023-01-31T12:22:14;100051.98;;;10.60;43.53
34658;BME280;20865;43.312;27.152;2023-01-31T12:25:07;100055.30;;;10.27;44.35
34658;BME280;20865;43.312;27.152;2023-01-31T12:27:52;100046.99;;;10.36;43.96
34658;BME280;20865;43.312;27.152;2023-01-31T12:33:47;100059.72;;;10.55;44.08
34658;BME280;20865;43.312;27.152;2023-01-31T12:36:36;100069.34;;;10.60;44.22
34658;BME280;20865;43.312;27.152;2023-01-31T12:39:35;100068.47;;;10.46;43.77
34658;BME280;20865;43.312;27.152;2023-01-31T12:42:16;100060.75;;;10.51;43.87
34658;BME280;20865;43.312;27.152;2023-01-31T12:44:45;100067.03;;;10.49;43.89
34658;BME280;20865;43.312;27.152;2023-01-31T12:47:22;100069.92;;;10.14;44.53
34658;BME280;20865;43.312;27.152;2023-01-31T12:49:57;100072.55;;;10.30;44.35
34658;BME280;20865;43.312;27.152;2023-01-31T13:00:42;100086.55;;;10.09;44.72
34658;BME280;20865;43.312;27.152;2023-01-31T13:03:35;100087.42;;;10.09;44.46
34658;BME280;20865;43.312;27.152;2023-01-31T13:08:33;100097.08;;;10.13;44.68
34658;BME280;20865;43.312;27.152;2023-01-31T13:13:49;100108.22;;;10.13;44.68
34658;BME280;20865;43.312;27.152;2023-01-31T13:16:20;100102.20;;;10.06;44.76
34658;BME280;20865;43.312;27.152;2023-01-31T13:18:50;100112.44;;;9.77;44.86
34658;BME280;20865;43.312;27.152;2023-01-31T13:21:21;100118.83;;;10.01;44.96
34658;BME280;20865;43.312;27.152;2023-01-31T13:23:54;100119.79;;;9.98;45.07
34658;BME280;20865;43.312;27.152;2023-01-31T13:26:37;100114.98;;;10.10;45.22
34658;BME280;20865;43.312;27.152;2023-01-31T13:29:13;100123.93;;;10.09;44.96
34658;BME280;20865;43.312;27.152;2023-01-31T13:34:23;100125.17;;;10.25;45.18
34658;BME280;20865;43.312;27.152;2023-01-31T13:36:57;100122.63;;;10.37;45.16
34658;BME280;20865;43.312;27.152;2023-01-31T13:39:32;100134.34;;;10.33;45.23
34658;BME280;20865;43.312;27.152;2023-01-31T13:42:00;100133.97;;;10.30;45.36
34658;BME280;20865;43.312;27.152;2023-01-31T13:44:28;100136.87;;;10.08;45.45
34658;BME280;20865;43.312;27.152;2023-01-31T13:47:16;100135.47;;;10.09;45.25
34658;BME280;20865;43.312;27.152;2023-01-31T13:49:49;100125.42;;;10.17;45.26
34658;BME280;20865;43.312;27.152;2023-01-31T13:54:54;100133.78;;;10.36;45.46
34658;BME280;20865;43.312;27.152;2023-01-31T13:57:28;100134.58;;;10.38;45.12
34658;BME280;20865;43.312;27.152;2023-01-31T14:03:00;100139.45;;;10.39;45.06
34658;BME280;20865;43.312;27.152;2023-01-31T14:09:19;100143.16;;;10.35;45.41
34658;BME280;20865;43.312;27.152;2023-01-31T14:13:48;100146.08;;;10.27;45.66
34658;BME280;20865;43.312;27.152;2023-01-31T14:19:04;100152.01;;;10.37;45.91
34658;BME280;20865;43.312;27.152;2023-01-31T14:21:49;100154.05;;;10.42;45.93
34658;BME280;20865;43.312;27.152;2023-01-31T14:24:17;100153.30;;;10.52;45.90
34658;BME280;20865;43.312;27.152;2023-01-31T14:29:20;100155.32;;;10.58;46.17
34658;BME280;20865;43.312;27.152;2023-01-31T14:31:46;100156.09;;;10.62;46.24
34658;BME280;20865;43.312;27.152;2023-01-31T14:34:17;100163.61;;;10.64;46.23
34658;BME280;20865;43.312;27.152;2023-01-31T14:36:55;100166.59;;;10.68;46.24
34658;BME280;20865;43.312;27.152;2023-01-31T14:39:31;100168.98;;;10.62;46.45
34658;BME280;20865;43.312;27.152;2023-01-31T14:50:36;100181.22;;;10.69;46.51